Time;durP1;ratioP1;P1;durP2;ratioP2;P2;SDS_P1;SDS_P2;PMS_P1;PMS_P2;Temp;Humidity;BMP_temperature;BMP_pressure;BME280_temperature;BME280_humidity;BME280_pressure;Samples;Min_cycle;Max_cycle;Signal;HPM_P1;HPM_P2
2022/12/24 00:02:22;;;;;;;68.53;33.55;;;;;;;2.85;81.45;101009.47;5068967;28;20449;-79
2022/12/24 00:04:47;;;;;;;72.28;34.20;;;;;;;3.03;81.58;101038.22;5069210;28;20433;-81
2022/12/24 00:07:13;;;;;;;75.43;36.75;;;;;;;3.06;80.92;101048.44;5053037;28;20024;-79
2022/12/24 00:09:38;;;;;;;65.53;31.75;;;;;;;2.99;81.44;101042.53;5055909;28;20063;-78
2022/12/24 00:12:04;;;;;;;66.72;34.13;;;;;;;2.92;81.22;101040.03;5072764;28;20032;-78
2022/12/24 00:14:30;;;;;;;54.60;34.28;;;;;;;2.87;80.76;101048.63;5072231;28;20051;-79
2022/12/24 00:16:55;;;;;;;62.88;33.78;;;;;;;2.86;81.04;101053.75;5055966;28;20036;-79
2022/12/24 00:19:21;;;;;;;60.83;37.30;;;;;;;2.87;81.80;101052.88;5072329;28;20517;-79
2022/12/24 00:21:46;;;;;;;58.95;32.95;;;;;;;2.87;82.60;101052.88;5055435;28;20029;-78
2022/12/24 00:24:12;;;;;;;60.08;32.42;;;;;;;2.92;82.20;101051.09;5072394;28;20029;-78
2022/12/24 00:26:37;;;;;;;59.33;29.40;;;;;;;2.89;82.39;101051.16;5072369;28;20028;-78
2022/12/24 00:29:03;;;;;;;66.30;33.70;;;;;;;2.80;82.32;101041.88;5055455;28;20464;-78
2022/12/24 00:31:28;;;;;;;55.22;30.27;;;;;;;2.97;81.79;101064.69;5055473;28;20024;-79
2022/12/24 00:33:54;;;;;;;54.15;27.58;;;;;;;2.71;81.52;101026.63;5072535;28;20100;-78
2022/12/24 00:36:19;;;;;;;56.53;28.30;;;;;;;2.92;81.63;101068.16;5072229;28;20086;-78
2022/12/24 00:38:45;;;;;;;76.10;29.23;;;;;;;2.88;81.95;101057.97;5072194;28;20090;-79
2022/12/24 00:41:23;;;;;;;66.78;34.97;;;;;;;2.95;82.06;101071.53;5071787;28;20134;-79
2022/12/24 00:43:52;;;;;;;77.30;38.58;;;;;;;2.75;82.12;101045.31;5056920;28;20191;-79
2022/12/24 00:46:18;;;;;;;51.92;31.27;;;;;;;2.97;82.22;101077.47;5055320;28;20028;-78
2022/12/24 00:48:43;;;;;;;60.08;33.42;;;;;;;2.98;81.88;101081.72;5055356;28;20028;-79
2022/12/24 00:51:09;;;;;;;78.45;31.52;;;;;;;2.94;82.06;101074.94;5038658;28;20101;-78
2022/12/24 00:53:34;;;;;;;61.08;30.50;;;;;;;2.94;81.82;101085.16;5055111;28;20417;-78
2022/12/24 00:56:00;;;;;;;38.35;25.95;;;;;;;2.96;81.84;101097.94;5071531;28;20025;-79
2022/12/24 00:58:25;;;;;;;54.75;29.38;;;;;;;2.81;81.14;101068.28;5055175;28;20482;-79
2022/12/24 01:00:51;;;;;;;59.25;28.33;;;;;;;2.87;81.18;101084.41;5054906;28;20029;-78
2022/12/24 01:03:16;;;;;;;45.38;24.60;;;;;;;2.82;81.37;101090.41;5054914;28;20036;-79
2022/12/24 01:05:42;;;;;;;54.50;29.35;;;;;;;2.71;81.10;101075.19;5054926;28;20025;-78
2022/12/24 01:08:07;;;;;;;49.05;26.48;;;;;;;2.73;80.89;101075.16;5073047;28;20032;-79
2022/12/24 01:10:32;;;;;;;45.53;26.33;;;;;;;2.75;81.01;101081.97;5071306;28;20082;-79
2022/12/24 01:13:01;;;;;;;48.85;25.60;;;;;;;2.78;81.25;101091.31;5071582;28;20414;-79
2022/12/24 01:15:27;;;;;;;42.75;24.83;;;;;;;2.74;82.15;101079.41;5054703;28;20024;-78
2022/12/24 01:17:52;;;;;;;43.33;25.90;;;;;;;2.74;81.93;101076.84;5054430;28;20040;-79
2022/12/24 01:20:18;;;;;;;39.33;25.92;;;;;;;2.73;81.73;101070.88;5070918;28;20036;-78
2022/12/24 01:22:43;;;;;;;37.15;24.63;;;;;;;2.59;81.15;101042.94;5054654;28;20039;-78
2022/12/24 01:25:09;;;;;;;57.80;25.98;;;;;;;2.76;81.05;101090.47;5070962;28;20093;-78
2022/12/24 01:27:34;;;;;;;47.05;24.67;;;;;;;2.79;81.43;101091.28;5054669;28;20037;-79
2022/12/24 01:30:00;;;;;;;45.53;22.98;;;;;;;2.59;81.38;101068.47;5071475;28;20036;-78
2022/12/24 01:32:25;;;;;;;44.05;26.40;;;;;;;2.67;80.83;101077.78;5071137;28;20025;-80
2022/12/24 01:34:51;;;;;;;33.00;21.83;;;;;;;2.58;81.50;101084.66;5037854;28;20102;-78
2022/12/24 01:37:16;;;;;;;51.72;23.33;;;;;;;2.63;81.60;101084.63;5070763;28;20525;-78
2022/12/24 01:39:42;;;;;;;40.10;21.55;;;;;;;2.33;81.41;101027.00;5070699;28;20067;-78
2022/12/24 01:45:41;;;;;;;25.98;16.52;;;;;;;2.59;81.77;101090.63;5071094;28;20086;-78
2022/12/24 01:48:34;;;;;;;33.35;19.15;;;;;;;2.63;81.91;101082.06;5071718;28;20062;-78
2022/12/24 01:51:20;;;;;;;43.55;20.48;;;;;;;2.68;81.95;101089.69;5070667;28;20025;-78
2022/12/24 01:53:47;;;;;;;29.95;15.23;;;;;;;2.70;81.41;101080.31;5070475;28;20032;-78
2022/12/24 01:56:13;;;;;;;28.30;20.05;;;;;;;2.59;80.93;101078.69;5070420;28;20119;-81
2022/12/24 01:58:39;;;;;;;31.83;18.55;;;;;;;2.57;81.23;101074.47;5054057;28;20033;-78
2022/12/24 02:01:04;;;;;;;40.42;17.27;;;;;;;2.36;81.60;101039.75;5037211;28;20398;-79
2022/12/24 02:03:30;;;;;;;24.52;16.42;;;;;;;2.47;81.80;101048.16;5054118;28;20061;-79
2022/12/24 02:05:56;;;;;;;32.13;13.32;;;;;;;2.59;82.00;101073.59;5053617;28;20039;-79
2022/12/24 02:08:22;;;;;;;40.45;19.67;;;;;;;2.64;81.96;101083.75;5053360;28;20028;-78
2022/12/24 02:10:47;;;;;;;28.92;18.52;;;;;;;2.62;82.20;101071.84;5070377;28;20031;-79
2022/12/24 02:13:17;;;;;;;30.10;17.90;;;;;;;2.59;81.97;101076.13;5070296;28;20028;-79
2022/12/24 02:15:58;;;;;;;34.72;20.77;;;;;;;2.66;82.27;101079.50;5069998;28;20032;-79
2022/12/24 02:19:04;;;;;;;25.15;15.23;;;;;;;2.71;82.48;101079.44;5071376;28;20056;-78
2022/12/24 02:21:32;;;;;;;24.75;16.80;;;;;;;2.65;81.67;101082.03;5070499;28;20041;-79
2022/12/24 02:24:22;;;;;;;37.63;19.40;;;;;;;2.64;82.17;101075.25;5071025;28;20054;-79
2022/12/24 02:27:08;;;;;;;29.42;16.00;;;;;;;2.36;82.26;101039.75;5070370;28;20029;-78
2022/12/24 02:29:51;;;;;;;29.55;16.85;;;;;;;2.56;82.58;101049.78;5069616;28;20098;-79
2022/12/24 02:32:52;;;;;;;41.75;15.88;;;;;;;2.68;82.76;101071.81;5070824;28;20060;-78
2022/12/24 02:35:22;;;;;;;28.00;17.98;;;;;;;2.76;83.03;101063.22;5065407;28;20441;-79
2022/12/24 02:38:00;;;;;;;25.70;15.68;;;;;;;2.86;84.16;101069.09;5069872;28;20024;-78
2022/12/24 02:40:33;;;;;;;36.35;19.40;;;;;;;2.87;84.98;101063.09;5053395;28;20032;-78
2022/12/24 02:43:02;;;;;;;33.97;22.52;;;;;;;2.68;84.58;101025.84;5053533;28;20036;-78
2022/12/24 02:45:29;;;;;;;37.13;24.20;;;;;;;2.93;84.80;101068.13;5053141;28;20029;-78
2022/12/24 02:47:55;;;;;;;29.08;21.35;;;;;;;2.86;85.20;101057.16;5053699;28;20028;-78
2022/12/24 02:50:20;;;;;;;28.65;19.30;;;;;;;2.93;84.45;101068.13;5036467;28;20102;-78
2022/12/24 02:52:46;;;;;;;26.92;15.88;;;;;;;3.01;84.30;101070.63;5069479;28;20035;-78
2022/12/24 02:55:22;;;;;;;38.58;20.45;;;;;;;2.93;84.34;101074.97;5036371;28;20035;-78
2022/12/24 02:58:09;;;;;;;31.33;18.00;;;;;;;2.96;84.08;101080.06;5052917;28;20119;-78
2022/12/24 03:01:15;;;;;;;30.27;16.67;;;;;;;2.97;83.34;101074.94;5069161;28;20032;-79
2022/12/24 03:04:05;;;;;;;24.42;16.10;;;;;;;2.95;83.76;101080.88;5063006;28;20055;-79
2022/12/24 03:06:49;;;;;;;31.25;15.30;;;;;;;2.89;83.94;101084.38;5070429;28;20035;-79
2022/12/24 03:09:25;;;;;;;17.92;12.00;;;;;;;2.83;84.10;101086.97;5069523;28;20028;-79
2022/12/24 03:11:56;;;;;;;21.08;13.40;;;;;;;2.81;83.79;101088.72;5070435;28;20436;-79
2022/12/24 03:14:22;;;;;;;30.00;13.48;;;;;;;2.65;84.25;101069.25;5053219;28;20029;-78
2022/12/24 03:16:47;;;;;;;20.38;12.57;;;;;;;2.66;84.20;101065.88;5052697;28;20137;-78
2022/12/24 03:19:13;;;;;;;24.00;15.57;;;;;;;2.77;84.49;101093.00;5069279;28;20052;-78
2022/12/24 03:21:38;;;;;;;17.08;10.05;;;;;;;2.75;83.94;101081.09;5069017;28;20029;-78
2022/12/24 03:24:04;;;;;;;24.17;14.85;;;;;;;2.41;83.98;101034.59;5035999;28;20029;-78
2022/12/24 03:26:29;;;;;;;21.70;14.57;;;;;;;2.73;83.41;101082.81;5069415;28;20028;-79
2022/12/24 03:28:55;;;;;;;17.48;12.05;;;;;;;2.71;83.52;101080.28;5069536;28;20535;-79
2022/12/24 03:31:20;;;;;;;21.13;13.73;;;;;;;2.54;83.40;101043.81;5069310;28;20024;-78
2022/12/24 03:33:46;;;;;;;21.05;12.85;;;;;;;2.62;83.63;101066.75;5069388;28;20021;-78
2022/12/24 03:36:12;;;;;;;15.63;11.50;;;;;;;2.64;83.18;101075.25;5051858;28;20036;-79
2022/12/24 03:38:37;;;;;;;28.70;14.65;;;;;;;2.75;83.42;101081.09;5035957;28;20024;-78
2022/12/24 03:41:03;;;;;;;27.60;18.67;;;;;;;2.70;82.98;101067.53;5069301;28;20093;-78
2022/12/24 03:43:28;;;;;;;33.70;16.08;;;;;;;2.76;83.32;101070.03;5072223;28;20115;-78
2022/12/24 03:45:54;;;;;;;26.70;14.23;;;;;;;2.79;83.18;101073.41;5073139;28;20033;-78
2022/12/24 03:48:19;;;;;;;27.17;14.32;;;;;;;2.76;83.22;101070.03;5039791;28;20444;-78
2022/12/24 03:50:45;;;;;;;45.03;16.67;;;;;;;2.71;83.37;101089.66;5072763;28;20035;-78
2022/12/24 03:53:10;;;;;;;27.42;11.93;;;;;;;2.67;83.37;101076.06;5056417;28;20539;-79
2022/12/24 03:55:37;;;;;;;32.67;15.65;;;;;;;2.75;82.67;101086.19;5072964;28;20135;-79
2022/12/24 03:58:02;;;;;;;25.58;14.68;;;;;;;2.64;82.24;101067.56;5056334;28;20026;-78
2022/12/24 04:00:28;;;;;;;30.25;17.13;;;;;;;2.49;81.94;101051.53;5072853;28;20089;-79
2022/12/24 04:02:53;;;;;;;32.92;16.65;;;;;;;2.56;82.04;101078.72;5055941;28;20064;-78
2022/12/24 04:05:19;;;;;;;19.17;12.65;;;;;;;2.51;81.63;101070.25;5072498;28;20032;-78
2022/12/24 04:07:45;;;;;;;22.35;14.52;;;;;;;2.53;82.12;101071.06;5072486;28;20082;-79
2022/12/24 04:10:11;;;;;;;25.27;16.35;;;;;;;2.49;82.41;101077.09;5072684;28;20052;-78
2022/12/24 04:12:37;;;;;;;27.60;15.77;;;;;;;2.29;82.18;101045.75;5056043;28;20039;-79
2022/12/24 04:15:03;;;;;;;21.50;13.77;;;;;;;2.52;82.11;101088.97;5072646;28;20673;-78
2022/12/24 04:17:28;;;;;;;30.42;16.52;;;;;;;2.52;81.26;101089.81;5055694;28;20032;-78
2022/12/24 04:19:54;;;;;;;24.35;16.20;;;;;;;2.45;81.55;101088.16;5071991;28;20132;-78
2022/12/24 04:22:19;;;;;;;22.35;15.35;;;;;;;2.39;81.84;101105.25;5072491;28;20064;-78
2022/12/24 04:24:45;;;;;;;36.00;18.27;;;;;;;2.36;81.82;101106.13;5055479;28;20563;-78
2022/12/24 04:27:12;;;;;;;32.08;16.52;;;;;;;2.21;82.13;101089.22;5055785;28;20036;-78
2022/12/24 04:29:38;;;;;;;27.80;14.93;;;;;;;2.18;82.01;101076.47;5039134;28;20029;-78
2022/12/24 04:32:04;;;;;;;20.30;13.27;;;;;;;2.34;81.94;101101.88;5055631;28;20513;-78
2022/12/24 04:34:29;;;;;;;30.38;15.80;;;;;;;2.27;82.25;101089.19;5055192;28;20025;-79
2022/12/24 04:36:55;;;;;;;27.08;15.05;;;;;;;2.26;82.00;101084.94;5073408;28;20021;-78
2022/12/24 04:39:20;;;;;;;31.98;15.07;;;;;;;2.22;81.64;101090.91;5072194;28;20027;-78
2022/12/24 04:41:46;;;;;;;23.50;14.38;;;;;;;2.32;81.44;101099.34;5071997;28;20028;-78
2022/12/24 04:44:11;;;;;;;31.55;17.65;;;;;;;2.33;81.83;101101.03;5072338;28;20032;-78
2022/12/24 04:46:36;;;;;;;27.13;17.90;;;;;;;2.23;81.89;101094.31;5038694;28;20386;-78
2022/12/24 04:49:02;;;;;;;24.88;15.07;;;;;;;2.32;82.04;101101.06;5072930;28;20036;-78
2022/12/24 04:51:27;;;;;;;23.75;15.52;;;;;;;2.26;81.25;101099.38;5055371;28;20028;-78
2022/12/24 04:53:53;;;;;;;24.15;14.30;;;;;;;2.12;81.72;101079.06;5054731;28;20105;-78
2022/12/24 04:56:21;;;;;;;27.67;18.08;;;;;;;2.20;81.62;101089.22;5038484;28;20429;-79
2022/12/24 04:58:46;;;;;;;23.08;14.35;;;;;;;2.25;81.67;101092.59;5055023;28;20035;-78
2022/12/24 05:01:21;;;;;;;39.33;20.40;;;;;;;2.10;82.00;101072.28;5072312;28;20060;-78
2022/12/24 05:03:47;;;;;;;25.63;17.30;;;;;;;2.20;81.47;101079.03;5055629;28;20028;-78
2022/12/24 05:06:15;;;;;;;30.45;19.73;;;;;;;2.04;81.42;101067.22;5071403;28;20063;-78
2022/12/24 05:08:42;;;;;;;25.50;17.38;;;;;;;2.17;81.45;101095.22;5071364;28;20115;-80
2022/12/24 05:11:07;;;;;;;37.45;21.48;;;;;;;2.14;81.78;101090.09;5054991;28;20028;-79
2022/12/24 05:13:33;;;;;;;33.58;18.08;;;;;;;2.17;82.37;101090.09;5071241;28;20035;-78
2022/12/24 05:15:59;;;;;;;31.33;20.60;;;;;;;1.98;82.27;101065.56;5054792;28;20043;-78
2022/12/24 05:18:24;;;;;;;31.83;19.83;;;;;;;2.11;82.74;101085.03;5070644;28;20040;-78
2022/12/24 05:20:50;;;;;;;30.27;17.30;;;;;;;2.07;82.75;101074.88;5054743;28;20060;-78
2022/12/24 05:26:22;;;;;;;35.00;18.27;;;;;;;1.90;82.45;101042.66;5071473;28;20038;-78
2022/12/24 05:28:48;;;;;;;;;;;;;;;2.13;82.64;101082.47;5057118;28;20043;-78
2022/12/24 05:31:13;;;;;;;21.17;12.98;;;;;;;2.07;83.07;101074.88;5054099;28;19916;-78
2022/12/24 05:33:39;;;;;;;25.45;16.85;;;;;;;1.88;82.52;101051.19;5071147;28;20402;-78
2022/12/24 05:36:05;;;;;;;35.45;17.70;;;;;;;1.90;82.86;101059.66;5071948;28;20028;-78
2022/12/24 05:38:30;;;;;;;35.38;17.73;;;;;;;2.01;83.14;101083.41;5072287;28;20028;-78
2022/12/24 05:40:56;;;;;;;32.55;19.42;;;;;;;2.05;83.49;101076.56;5037679;28;20074;-78
2022/12/24 05:43:21;;;;;;;29.17;17.48;;;;;;;2.12;83.74;101088.44;5070934;28;20493;-78
2022/12/24 05:45:47;;;;;;;44.50;21.17;;;;;;;2.05;83.83;101071.47;5053833;28;20071;-78
2022/12/24 05:48:12;;;;;;;40.95;21.08;;;;;;;2.19;83.75;101085.00;5070629;28;20029;-78
2022/12/24 05:50:39;;;;;;;32.83;19.67;;;;;;;2.13;83.67;101069.69;5053840;28;20508;-78
2022/12/24 05:53:05;;;;;;;33.00;19.70;;;;;;;2.31;83.37;101087.44;5053937;28;20025;-78
2022/12/24 05:55:30;;;;;;;42.38;22.17;;;;;;;2.28;83.50;101084.91;5070697;28;20040;-78
2022/12/24 05:57:56;;;;;;;26.63;17.77;;;;;;;2.35;82.73;101099.31;5070671;28;20025;-78
2022/12/24 06:00:21;;;;;;;36.63;22.05;;;;;;;2.37;83.10;101104.44;5070245;28;20024;-78
2022/12/24 06:02:47;;;;;;;34.20;17.20;;;;;;;2.37;83.32;101101.88;5070551;28;20107;-78
2022/12/24 06:05:12;;;;;;;34.90;22.58;;;;;;;2.24;83.05;101062.81;5053107;28;20444;-78
2022/12/24 06:07:38;;;;;;;38.25;22.08;;;;;;;2.19;83.16;101046.69;5070303;28;20553;-78
2022/12/24 06:10:04;;;;;;;79.00;21.83;;;;;;;2.54;83.26;101095.75;5070181;28;20028;-78
2022/12/24 06:12:30;;;;;;;34.88;19.55;;;;;;;2.62;83.38;101115.28;5053836;28;20056;-78
2022/12/24 06:14:55;;;;;;;30.58;17.95;;;;;;;2.64;83.04;101116.09;5069768;28;20033;-78
2022/12/24 06:17:20;;;;;;;36.72;23.35;;;;;;;2.59;83.26;101119.56;5070009;28;20067;-78
2022/12/24 06:19:46;;;;;;;32.67;15.82;;;;;;;2.47;82.54;101091.56;5053339;28;20044;-78
2022/12/24 06:22:11;;;;;;;38.00;22.73;;;;;;;2.59;82.97;101103.41;5070124;28;20021;-78
2022/12/24 06:24:37;;;;;;;40.30;19.83;;;;;;;2.76;83.33;101131.34;5053478;28;20029;-78
2022/12/24 06:27:02;;;;;;;32.13;21.35;;;;;;;2.79;83.47;101116.84;5053570;28;20109;-78
2022/12/24 06:29:28;;;;;;;40.20;23.48;;;;;;;3.02;83.14;101136.22;5069725;28;20116;-78
2022/12/24 06:31:53;;;;;;;30.17;19.85;;;;;;;3.00;83.27;101145.59;5069970;28;20456;-78
2022/12/24 06:34:19;;;;;;;36.95;23.65;;;;;;;2.98;83.42;101143.06;5069710;28;20036;-78
2022/12/24 06:36:44;;;;;;;39.38;23.30;;;;;;;2.99;83.56;101142.22;5053198;28;20047;-79
2022/12/24 06:39:10;;;;;;;31.55;22.20;;;;;;;2.81;83.39;101093.81;5053179;28;20090;-78
2022/12/24 06:41:35;;;;;;;41.80;22.63;;;;;;;3.25;84.00;101149.63;5053042;28;20032;-78
2022/12/24 06:44:01;;;;;;;39.28;25.55;;;;;;;3.13;84.10;101112.22;5069564;28;20036;-79
2022/12/24 06:46:26;;;;;;;51.88;26.35;;;;;;;3.35;84.47;101147.81;5069615;28;20482;-78
2022/12/24 06:48:53;;;;;;;50.00;25.52;;;;;;;3.37;84.47;101136.69;5069456;28;20037;-78
2022/12/24 06:51:19;;;;;;;45.22;20.55;;;;;;;3.44;84.07;101128.09;5069992;28;20499;-79
2022/12/24 06:53:45;;;;;;;37.20;19.48;;;;;;;3.60;84.31;101154.34;5052962;28;20500;-78
2022/12/24 06:56:12;;;;;;;31.20;18.25;;;;;;;3.54;84.50;101141.63;5069415;28;20028;-78
2022/12/24 06:58:38;;;;;;;33.40;19.00;;;;;;;3.62;84.15;101144.91;5052526;28;20022;-79
2022/12/24 07:01:04;;;;;;;27.42;18.48;;;;;;;3.73;84.21;101162.69;5052662;28;20063;-79
2022/12/24 07:03:29;;;;;;;28.10;18.92;;;;;;;3.69;84.24;101159.34;5052853;28;20021;-79
2022/12/24 07:05:55;;;;;;;29.08;17.90;;;;;;;3.74;84.16;101164.41;5052619;28;20063;-79
2022/12/24 07:08:20;;;;;;;40.05;20.52;;;;;;;3.80;83.44;101156.66;5036217;28;20090;-79
2022/12/24 07:10:48;;;;;;;31.58;19.50;;;;;;;3.82;83.34;101174.53;5052933;28;20047;-79
2022/12/24 07:13:13;;;;;;;29.38;19.63;;;;;;;3.83;84.14;101176.22;5069186;28;20100;-78
2022/12/24 07:15:39;;;;;;;33.53;20.90;;;;;;;3.78;83.86;101162.66;5069508;28;20025;-79
2022/12/24 07:18:04;;;;;;;53.78;26.95;;;;;;;3.82;83.43;101159.19;5070082;28;20048;-78
2022/12/24 07:20:30;;;;;;;32.40;19.92;;;;;;;3.83;83.72;101168.56;5052374;28;20028;-79
2022/12/24 07:22:55;;;;;;;31.63;19.42;;;;;;;3.90;83.70;101172.75;5069428;28;20071;-78
2022/12/24 07:25:21;;;;;;;35.95;24.27;;;;;;;3.93;83.61;101180.38;5052477;28;20056;-78
2022/12/24 07:27:46;;;;;;;35.80;25.02;;;;;;;4.02;83.26;101178.53;5068775;28;20052;-79
2022/12/24 07:30:12;;;;;;;37.88;23.50;;;;;;;4.05;82.98;101181.94;5052321;28;20029;-78
2022/12/24 07:32:37;;;;;;;41.97;23.65;;;;;;;4.12;83.00;101186.09;5052294;28;20092;-78
2022/12/24 07:35:03;;;;;;;34.67;21.08;;;;;;;4.10;83.55;101181.00;5052461;28;20028;-78
2022/12/24 07:37:29;;;;;;;33.33;19.75;;;;;;;4.17;83.47;101180.06;5069164;28;20067;-78
2022/12/24 07:39:54;;;;;;;32.22;20.80;;;;;;;4.08;83.61;101156.28;5052461;28;20033;-79
2022/12/24 07:42:20;;;;;;;36.60;21.55;;;;;;;4.11;83.44;101159.66;5052069;28;20474;-79
2022/12/24 07:44:45;;;;;;;29.25;18.45;;;;;;;4.15;83.51;101165.59;5052385;28;20028;-78
2022/12/24 07:47:11;;;;;;;31.10;19.98;;;;;;;4.21;83.06;101162.94;5069242;28;20029;-78
2022/12/24 07:49:36;;;;;;;36.30;18.30;;;;;;;4.32;82.96;101151.66;5069022;28;20490;-78
2022/12/24 07:52:02;;;;;;;35.28;15.55;;;;;;;4.42;82.87;101174.56;5052107;28;20029;-78
2022/12/24 07:54:28;;;;;;;27.58;17.58;;;;;;;4.33;82.78;101160.22;5069054;28;20505;-79
2022/12/24 07:56:53;;;;;;;32.35;15.60;;;;;;;4.51;82.69;101190.66;5068994;28;20106;-78
2022/12/24 07:59:19;;;;;;;31.27;15.80;;;;;;;4.43;82.41;101163.47;5068570;28;20063;-79
2022/12/24 08:01:45;;;;;;;24.92;15.98;;;;;;;4.50;82.82;101171.03;5051995;28;20037;-79
2022/12/24 08:04:10;;;;;;;21.90;14.27;;;;;;;4.61;83.43;101184.50;5052028;28;20020;-78
2022/12/24 08:06:36;;;;;;;23.67;16.95;;;;;;;4.71;83.25;101185.22;5052113;28;20085;-78
2022/12/24 08:09:01;;;;;;;30.15;17.02;;;;;;;4.80;83.71;101187.63;5035443;28;20056;-78
2022/12/24 08:11:27;;;;;;;28.60;20.45;;;;;;;4.83;83.88;101181.63;5068543;28;20505;-79
2022/12/24 08:13:52;;;;;;;28.08;19.25;;;;;;;4.78;83.39;101168.03;5068903;28;20035;-78
2022/12/24 08:16:18;;;;;;;31.35;22.15;;;;;;;4.94;83.24;101166.06;5068920;28;20498;-78
2022/12/24 08:18:43;;;;;;;49.28;24.30;;;;;;;4.98;82.77;101185.66;5051769;28;20429;-79
2022/12/24 08:21:09;;;;;;;50.45;24.15;;;;;;;4.95;82.92;101172.91;5052116;28;20032;-78
2022/12/24 08:23:35;;;;;;;33.70;23.85;;;;;;;4.98;82.11;101177.97;5069915;28;20093;-78
2022/12/24 08:26:00;;;;;;;55.33;27.33;;;;;;;4.90;81.88;101145.59;5052180;28;20032;-78
2022/12/24 08:28:26;;;;;;;42.92;24.95;;;;;;;5.16;81.80;101172.50;5070205;28;20103;-78
2022/12/24 08:30:51;;;;;;;42.80;24.10;;;;;;;4.95;81.15;101142.13;5038988;28;20068;-78
2022/12/24 08:33:17;;;;;;;39.63;25.17;;;;;;;5.13;81.60;101173.41;5073715;28;20457;-78
2022/12/24 08:35:50;;;;;;;53.85;24.15;;;;;;;5.15;81.74;101163.13;5071821;28;20024;-78
2022/12/24 08:38:15;;;;;;;39.30;24.52;;;;;;;5.19;81.67;101159.63;5072266;28;20025;-79
2022/12/24 08:40:41;;;;;;;40.78;24.75;;;;;;;5.26;81.14;101174.03;5071894;28;20082;-78
2022/12/24 08:43:07;;;;;;;36.08;21.73;;;;;;;5.19;80.98;101185.28;5072314;28;20077;-78
2022/12/24 08:45:32;;;;;;;39.80;22.08;;;;;;;5.14;80.93;101169.13;5038732;28;20033;-78
2022/12/24 08:47:59;;;;;;;49.10;24.25;;;;;;;5.24;80.68;101183.50;5055236;28;20020;-78
2022/12/24 08:50:24;;;;;;;39.15;24.38;;;;;;;5.28;80.65;101182.53;5055112;28;20036;-78
2022/12/24 08:52:50;;;;;;;36.72;22.98;;;;;;;5.26;81.06;101156.09;5071867;28;20028;-79
2022/12/24 08:55:15;;;;;;;39.83;21.38;;;;;;;5.26;80.66;101153.50;5054793;28;20033;-79
2022/12/24 08:57:41;;;;;;;45.28;25.17;;;;;;;5.33;81.44;101149.97;5071600;28;20493;-78
2022/12/24 09:00:07;;;;;;;39.90;21.60;;;;;;;5.32;81.55;101145.72;5054413;28;20028;-79
2022/12/24 09:02:32;;;;;;;26.45;17.17;;;;;;;5.24;81.46;101134.75;5054753;28;20111;-78
2022/12/24 09:04:58;;;;;;;40.80;17.85;;;;;;;5.36;81.55;101155.03;5054982;28;20086;-79
2022/12/24 09:07:24;;;;;;;29.13;18.70;;;;;;;5.33;80.97;101147.41;5072773;28;20033;-78
2022/12/24 09:09:49;;;;;;;34.33;21.83;;;;;;;5.37;81.26;101154.16;5071344;28;20033;-78
2022/12/24 09:12:15;;;;;;;30.55;19.45;;;;;;;5.52;81.40;101185.53;5071541;28;20036;-79
2022/12/24 09:14:40;;;;;;;32.00;21.88;;;;;;;5.24;81.41;101124.50;5071731;28;20032;-78
2022/12/24 09:17:06;;;;;;;36.60;23.88;;;;;;;5.60;81.19;101163.13;5071311;28;20052;-79
2022/12/24 09:19:31;;;;;;;35.88;22.92;;;;;;;5.54;80.94;101153.84;5071304;28;20521;-79
2022/12/24 09:21:58;;;;;;;44.75;21.30;;;;;;;5.79;80.84;101184.13;5070980;28;20052;-78
2022/12/24 09:24:23;;;;;;;42.63;27.13;;;;;;;5.73;80.72;101177.41;5054270;28;20032;-78
2022/12/24 09:26:49;;;;;;;40.03;21.40;;;;;;;5.85;80.58;101181.47;5037937;28;20047;-79
2022/12/24 09:29:15;;;;;;;44.05;26.45;;;;;;;5.93;80.15;101171.91;5071425;28;20082;-79
2022/12/24 09:31:40;;;;;;;45.42;23.17;;;;;;;5.83;81.06;101160.09;5071119;28;20031;-78
2022/12/24 09:34:06;;;;;;;43.50;26.73;;;;;;;5.92;81.23;101160.78;5071169;28;20028;-78
2022/12/24 09:36:32;;;;;;;45.28;23.67;;;;;;;5.97;80.56;101164.09;5054371;28;20028;-78
2022/12/24 09:38:58;;;;;;;43.58;23.60;;;;;;;5.96;80.19;101152.13;5053807;28;20032;-79
2022/12/24 09:41:38;;;;;;;43.75;24.15;;;;;;;6.08;79.87;101181.00;5054438;28;20469;-78
2022/12/24 09:44:22;;;;;;;46.97;25.23;;;;;;;5.99;80.05;101153.78;5071000;28;20111;-78
2022/12/24 09:46:48;;;;;;;45.30;26.88;;;;;;;6.11;79.58;101173.25;5071014;28;20032;-79
2022/12/24 09:49:16;;;;;;;47.42;25.40;;;;;;;6.13;80.25;101166.34;5054305;28;20401;-79
2022/12/24 09:51:44;;;;;;;42.90;25.52;;;;;;;6.07;80.98;101167.31;5071032;28;20108;-79
2022/12/24 09:54:28;;;;;;;48.25;30.23;;;;;;;5.95;80.68;101139.34;5054013;28;20033;-78
2022/12/24 09:56:54;;;;;;;53.33;28.13;;;;;;;6.20;80.35;101158.47;5038321;28;20098;-78
2022/12/24 09:59:21;;;;;;;42.42;28.27;;;;;;;6.31;80.36;101169.34;5070557;28;20028;-78
2022/12/24 10:01:47;;;;;;;54.75;30.50;;;;;;;6.18;80.73;101134.53;5054024;28;20028;-78
2022/12/24 10:04:15;;;;;;;56.47;30.83;;;;;;;6.32;80.83;101158.19;5070922;28;20025;-78
2022/12/24 10:07:13;;;;;;;46.95;27.25;;;;;;;6.42;80.93;101156.25;5069949;28;20036;-79
2022/12/24 10:09:50;;;;;;;34.72;21.90;;;;;;;6.33;80.75;101136.75;5070268;28;20036;-79
2022/12/24 10:12:24;;;;;;;44.10;23.80;;;;;;;6.50;80.79;101154.34;5071199;28;20056;-78
2022/12/24 10:15:14;;;;;;;40.17;21.92;;;;;;;6.52;81.21;101152.59;5069996;28;20035;-78
2022/12/24 10:17:46;;;;;;;42.75;25.35;;;;;;;6.51;80.67;101132.91;5070059;28;20103;-80
2022/12/24 10:20:40;;;;;;;40.70;23.17;;;;;;;6.50;80.88;101123.50;5070092;28;20093;-79
2022/12/24 10:23:18;;;;;;;43.40;23.02;;;;;;;6.62;80.50;101142.94;5054437;28;20024;-79
2022/12/24 10:26:06;;;;;;;55.70;33.53;;;;;;;6.65;80.55;101142.00;5071594;28;20040;-78
2022/12/24 10:28:56;;;;;;;50.45;26.60;;;;;;;6.79;80.90;101155.38;5070538;28;20028;-78
2022/12/24 10:31:24;;;;;;;49.83;26.83;;;;;;;6.79;80.68;101139.94;5066981;28;20039;-78
2022/12/24 10:33:54;;;;;;;57.45;32.10;;;;;;;6.76;80.11;101127.16;5069965;28;20060;-79
2022/12/24 10:36:22;;;;;;;58.40;29.33;;;;;;;6.89;80.56;101151.69;5069520;28;20038;-79
2022/12/24 10:38:48;;;;;;;43.67;23.52;;;;;;;6.88;81.06;101134.53;5069751;28;20099;-78
2022/12/24 10:41:13;;;;;;;53.85;24.38;;;;;;;7.07;79.61;101145.22;5069511;28;20552;-78
2022/12/24 10:43:41;;;;;;;45.58;27.00;;;;;;;6.81;80.05;101105.59;5053157;28;20025;-79
2022/12/24 10:46:22;;;;;;;51.15;26.65;;;;;;;6.82;80.42;101103.84;5053352;28;20111;-79
2022/12/24 10:48:59;;;;;;;49.92;27.52;;;;;;;7.13;80.65;101150.19;5069986;28;20036;-78
2022/12/24 10:51:49;;;;;;;51.05;25.55;;;;;;;7.18;80.42;101154.34;5052429;28;20032;-79
2022/12/24 10:54:16;;;;;;;52.78;25.23;;;;;;;7.09;80.28;101139.16;5069419;28;21279;-78
2022/12/24 10:56:43;;;;;;;48.80;29.02;;;;;;;7.30;80.22;101149.75;5069124;28;20028;-78
2022/12/24 10:59:41;;;;;;;48.53;30.67;;;;;;;7.35;80.06;101145.31;5069646;28;20025;-79
2022/12/24 11:02:29;;;;;;;52.60;28.27;;;;;;;7.40;79.98;101148.63;5069250;28;20097;-78
2022/12/24 11:04:55;;;;;;;53.38;31.02;;;;;;;7.50;79.57;101139.75;5070532;28;20036;-79
2022/12/24 11:07:22;;;;;;;67.45;33.28;;;;;;;7.37;79.51;101108.34;5069212;28;20028;-78
2022/12/24 11:10:12;;;;;;;80.95;39.72;;;;;;;7.68;78.96;101135.81;5069486;28;20039;-78
2022/12/24 11:12:47;;;;;;;63.30;34.72;;;;;;;7.70;79.39;101139.19;5069331;28;20486;-78
2022/12/24 11:15:18;;;;;;;81.05;29.45;;;;;;;7.52;79.43;101095.94;5052664;28;20527;-79
2022/12/24 11:18:03;;;;;;;63.88;28.38;;;;;;;7.80;79.25;101143.19;5052313;28;20040;-78
2022/12/24 11:20:30;;;;;;;52.05;28.70;;;;;;;7.74;79.24;101127.91;5053195;28;20486;-78
2022/12/24 11:22:55;;;;;;;57.97;32.42;;;;;;;7.45;79.49;101090.13;5068963;28;20132;-78
2022/12/24 11:25:22;;;;;;;67.57;30.63;;;;;;;7.78;79.81;101134.66;5052534;28;20478;-78
2022/12/24 11:27:51;;;;;;;58.20;35.10;;;;;;;7.86;79.43;101131.84;5052535;28;20025;-79
2022/12/24 11:30:23;;;;;;;54.25;32.38;;;;;;;7.92;79.79;101131.69;5069488;28;20121;-78